sensor_id;sensor_type;location;lat;lon;timestamp;pressure;altitude;pressure_sealevel;temperature;humidity
75172;BME280;63750;52.418;20.742;2022-10-31T00:01:25;101042.48;;;12.13;66.38
75172;BME280;63750;52.418;20.742;2022-10-31T00:03:54;101042.41;;;12.10;66.64
75172;BME280;63750;52.418;20.742;2022-10-31T00:06:23;101044.50;;;12.08;66.68
75172;BME280;63750;52.418;20.742;2022-10-31T00:08:55;101045.77;;;12.08;66.65
75172;BME280;63750;52.418;20.742;2022-10-31T00:11:24;101043.02;;;12.06;66.68
75172;BME280;63750;52.418;20.742;2022-10-31T00:13:52;101051.00;;;12.05;66.77
75172;BME280;63750;52.418;20.742;2022-10-31T00:16:22;101047.06;;;12.03;66.87
75172;BME280;63750;52.418;20.742;2022-10-31T00:18:52;101048.81;;;12.01;66.91
75172;BME280;63750;52.418;20.742;2022-10-31T00:21:21;101052.98;;;12.00;66.99
75172;BME280;63750;52.418;20.742;2022-10-31T00:23:49;101053.52;;;12.00;66.98
75172;BME280;63750;52.418;20.742;2022-10-31T00:26:18;101052.15;;;12.00;66.92
75172;BME280;63750;52.418;20.742;2022-10-31T00:28:47;101050.65;;;11.98;66.95
75172;BME280;63750;52.418;20.742;2022-10-31T00:31:15;101055.49;;;11.98;66.92
75172;BME280;63750;52.418;20.742;2022-10-31T00:33:44;101059.27;;;11.97;66.76
75172;BME280;63750;52.418;20.742;2022-10-31T00:36:15;101059.93;;;11.96;66.57
75172;BME280;63750;52.418;20.742;2022-10-31T00:38:44;101058.14;;;11.94;66.56
75172;BME280;63750;52.418;20.742;2022-10-31T00:41:14;101056.98;;;11.93;66.51
75172;BME280;63750;52.418;20.742;2022-10-31T00:43:44;101059.96;;;11.91;66.49
75172;BME280;63750;52.418;20.742;2022-10-31T00:46:13;101059.47;;;11.89;66.29
75172;BME280;63750;52.418;20.742;2022-10-31T00:48:41;101055.70;;;11.85;66.46
75172;BME280;63750;52.418;20.742;2022-10-31T00:51:10;101061.02;;;11.83;66.35
75172;BME280;63750;52.418;20.742;2022-10-31T00:53:39;101062.69;;;11.80;66.52
75172;BME280;63750;52.418;20.742;2022-10-31T00:56:08;101061.73;;;11.76;66.52
75172;BME280;63750;52.418;20.742;2022-10-31T00:58:36;101062.30;;;11.76;66.57
75172;BME280;63750;52.418;20.742;2022-10-31T01:01:05;101060.33;;;11.76;66.56
75172;BME280;63750;52.418;20.742;2022-10-31T01:03:34;101058.46;;;11.75;66.26
75172;BME280;63750;52.418;20.742;2022-10-31T01:06:05;101056.79;;;11.74;66.42
75172;BME280;63750;52.418;20.742;2022-10-31T01:08:34;101056.74;;;11.72;66.35
75172;BME280;63750;52.418;20.742;2022-10-31T01:11:06;101059.90;;;11.71;66.31
75172;BME280;63750;52.418;20.742;2022-10-31T01:13:35;101056.81;;;11.67;66.25
75172;BME280;63750;52.418;20.742;2022-10-31T01:16:05;101056.84;;;11.64;66.11
75172;BME280;63750;52.418;20.742;2022-10-31T01:18:33;101059.46;;;11.61;66.31
75172;BME280;63750;52.418;20.742;2022-10-31T01:21:05;101061.16;;;11.57;66.20
75172;BME280;63750;52.418;20.742;2022-10-31T01:23:34;101058.77;;;11.54;66.31
75172;BME280;63750;52.418;20.742;2022-10-31T01:26:05;101062.84;;;11.52;66.24
75172;BME280;63750;52.418;20.742;2022-10-31T01:28:34;101056.85;;;11.50;66.21
75172;BME280;63750;52.418;20.742;2022-10-31T01:31:05;101057.14;;;11.48;66.35
75172;BME280;63750;52.418;20.742;2022-10-31T01:33:34;101058.35;;;11.46;66.20
75172;BME280;63750;52.418;20.742;2022-10-31T01:36:10;101060.82;;;11.44;66.36
75172;BME280;63750;52.418;20.742;2022-10-31T01:38:38;101063.61;;;11.41;66.35
75172;BME280;63750;52.418;20.742;2022-10-31T01:41:06;101064.40;;;11.38;66.18
75172;BME280;63750;52.418;20.742;2022-10-31T01:43:48;101065.71;;;11.35;66.14
75172;BME280;63750;52.418;20.742;2022-10-31T01:46:19;101067.25;;;11.29;66.08
75172;BME280;63750;52.418;20.742;2022-10-31T01:48:51;101064.44;;;11.24;66.33
75172;BME280;63750;52.418;20.742;2022-10-31T01:51:23;101058.72;;;11.22;66.26
75172;BME280;63750;52.418;20.742;2022-10-31T01:53:56;101057.12;;;11.22;66.10
75172;BME280;63750;52.418;20.742;2022-10-31T01:56:25;101056.39;;;11.23;66.22
75172;BME280;63750;52.418;20.742;2022-10-31T01:58:56;101061.84;;;11.21;66.07
75172;BME280;63750;52.418;20.742;2022-10-31T02:01:28;101055.04;;;11.18;66.26
75172;BME280;63750;52.418;20.742;2022-10-31T02:03:58;101054.92;;;11.15;66.02
75172;BME280;63750;52.418;20.742;2022-10-31T02:06:35;101055.99;;;11.13;66.24
75172;BME280;63750;52.418;20.742;2022-10-31T02:09:08;101055.10;;;11.11;66.33
75172;BME280;63750;52.418;20.742;2022-10-31T02:11:37;101059.09;;;11.09;66.10
75172;BME280;63750;52.418;20.742;2022-10-31T02:14:06;101057.46;;;11.08;66.17
75172;BME280;63750;52.418;20.742;2022-10-31T02:16:34;101052.52;;;11.05;66.13
75172;BME280;63750;52.418;20.742;2022-10-31T02:19:03;101054.56;;;11.04;66.31
75172;BME280;63750;52.418;20.742;2022-10-31T02:21:40;101053.93;;;11.03;66.31
75172;BME280;63750;52.418;20.742;2022-10-31T02:24:44;101052.38;;;11.00;66.45
75172;BME280;63750;52.418;20.742;2022-10-31T02:27:34;101055.63;;;10.98;66.36
75172;BME280;63750;52.418;20.742;2022-10-31T02:30:11;101055.80;;;10.95;66.55
75172;BME280;63750;52.418;20.742;2022-10-31T02:32:54;101054.01;;;10.95;66.51
75172;BME280;63750;52.418;20.742;2022-10-31T02:35:36;101057.80;;;10.95;66.55
75172;BME280;63750;52.418;20.742;2022-10-31T02:38:17;101058.42;;;10.91;66.47
75172;BME280;63750;52.418;20.742;2022-10-31T02:40:56;101060.58;;;10.89;66.76
75172;BME280;63750;52.418;20.742;2022-10-31T02:43:32;101061.33;;;10.86;66.79
75172;BME280;63750;52.418;20.742;2022-10-31T02:46:07;101065.18;;;10.84;66.46
75172;BME280;63750;52.418;20.742;2022-10-31T02:48:39;101070.45;;;10.83;66.36
75172;BME280;63750;52.418;20.742;2022-10-31T02:51:11;101071.52;;;10.83;66.23
75172;BME280;63750;52.418;20.742;2022-10-31T02:53:40;101075.89;;;10.81;66.08
75172;BME280;63750;52.418;20.742;2022-10-31T02:56:14;101071.81;;;10.81;66.22
75172;BME280;63750;52.418;20.742;2022-10-31T02:58:46;101074.31;;;10.79;66.30
75172;BME280;63750;52.418;20.742;2022-10-31T03:01:33;101078.09;;;10.80;66.50
75172;BME280;63750;52.418;20.742;2022-10-31T03:04:26;101082.52;;;10.80;66.49
75172;BME280;63750;52.418;20.742;2022-10-31T03:07:00;101093.54;;;10.78;66.23
75172;BME280;63750;52.418;20.742;2022-10-31T03:09:37;101095.03;;;10.77;66.25
75172;BME280;63750;52.418;20.742;2022-10-31T03:12:13;101093.84;;;10.76;66.23
75172;BME280;63750;52.418;20.742;2022-10-31T03:14:47;101099.64;;;10.77;66.22
75172;BME280;63750;52.418;20.742;2022-10-31T03:17:23;101100.76;;;10.76;66.24
75172;BME280;63750;52.418;20.742;2022-10-31T03:19:55;101102.35;;;10.76;66.15
75172;BME280;63750;52.418;20.742;2022-10-31T03:22:28;101106.78;;;10.78;66.53
75172;BME280;63750;52.418;20.742;2022-10-31T03:24:58;101109.63;;;10.78;66.37
75172;BME280;63750;52.418;20.742;2022-10-31T03:27:32;101105.88;;;10.76;66.17
75172;BME280;63750;52.418;20.742;2022-10-31T03:30:04;101107.20;;;10.73;66.07
75172;BME280;63750;52.418;20.742;2022-10-31T03:32:36;101112.52;;;10.68;65.95
75172;BME280;63750;52.418;20.742;2022-10-31T03:35:09;101114.89;;;10.63;66.13
75172;BME280;63750;52.418;20.742;2022-10-31T03:37:42;101114.13;;;10.59;66.44
75172;BME280;63750;52.418;20.742;2022-10-31T03:40:15;101113.58;;;10.62;66.52
75172;BME280;63750;52.418;20.742;2022-10-31T03:42:52;101113.78;;;10.68;67.17
75172;BME280;63750;52.418;20.742;2022-10-31T03:45:25;101110.09;;;10.77;67.17
75172;BME280;63750;52.418;20.742;2022-10-31T03:47:55;101109.30;;;10.82;66.76
75172;BME280;63750;52.418;20.742;2022-10-31T03:50:38;101108.70;;;10.87;66.64
75172;BME280;63750;52.418;20.742;2022-10-31T03:53:11;101112.14;;;10.91;66.11
75172;BME280;63750;52.418;20.742;2022-10-31T03:55:45;101108.14;;;10.97;66.38
75172;BME280;63750;52.418;20.742;2022-10-31T03:58:22;101104.66;;;10.96;65.74
75172;BME280;63750;52.418;20.742;2022-10-31T04:00:53;101105.92;;;10.89;65.06
75172;BME280;63750;52.418;20.742;2022-10-31T04:03:27;101105.07;;;10.82;65.03
75172;BME280;63750;52.418;20.742;2022-10-31T04:05:59;101105.09;;;10.77;64.93
75172;BME280;63750;52.418;20.742;2022-10-31T04:08:32;101104.04;;;10.73;65.23
75172;BME280;63750;52.418;20.742;2022-10-31T04:11:04;101110.06;;;10.66;64.91
75172;BME280;63750;52.418;20.742;2022-10-31T04:13:35;101114.66;;;10.59;65.46
75172;BME280;63750;52.418;20.742;2022-10-31T04:16:07;101115.54;;;10.53;65.17
75172;BME280;63750;52.418;20.742;2022-10-31T04:18:36;101120.25;;;10.47;65.68
75172;BME280;63750;52.418;20.742;2022-10-31T04:21:06;101121.70;;;10.42;65.70
75172;BME280;63750;52.418;20.742;2022-10-31T04:23:36;101123.23;;;10.38;65.80
75172;BME280;63750;52.418;20.742;2022-10-31T04:26:04;101122.23;;;10.35;66.03
75172;BME280;63750;52.418;20.742;2022-10-31T04:28:32;101121.94;;;10.32;66.15
75172;BME280;63750;52.418;20.742;2022-10-31T04:31:01;101121.39;;;10.30;66.29
75172;BME280;63750;52.418;20.742;2022-10-31T04:33:30;101123.98;;;10.31;66.04
75172;BME280;63750;52.418;20.742;2022-10-31T04:35:58;101127.17;;;10.31;66.49
75172;BME280;63750;52.418;20.742;2022-10-31T04:38:26;101127.94;;;10.30;66.28
75172;BME280;63750;52.418;20.742;2022-10-31T04:40:54;101129.79;;;10.29;66.73
75172;BME280;63750;52.418;20.742;2022-10-31T04:43:23;101128.86;;;10.27;66.83
75172;BME280;63750;52.418;20.742;2022-10-31T04:45:51;101126.27;;;10.25;66.41
75172;BME280;63750;52.418;20.742;2022-10-31T04:48:20;101129.51;;;10.25;66.75
75172;BME280;63750;52.418;20.742;2022-10-31T04:50:48;101132.84;;;10.23;66.88
75172;BME280;63750;52.418;20.742;2022-10-31T04:53:17;101129.95;;;10.22;66.47
75172;BME280;63750;52.418;20.742;2022-10-31T04:55:45;101132.77;;;10.19;66.85
75172;BME280;63750;52.418;20.742;2022-10-31T04:58:14;101126.59;;;10.19;66.99
75172;BME280;63750;52.418;20.742;2022-10-31T05:00:44;101127.88;;;10.21;66.75
75172;BME280;63750;52.418;20.742;2022-10-31T05:03:12;101130.48;;;10.24;66.88
75172;BME280;63750;52.418;20.742;2022-10-31T05:05:41;101129.99;;;10.25;67.06
75172;BME280;63750;52.418;20.742;2022-10-31T05:08:10;101131.59;;;10.26;66.96
75172;BME280;63750;52.418;20.742;2022-10-31T05:10:38;101124.84;;;10.26;66.59
75172;BME280;63750;52.418;20.742;2022-10-31T05:13:07;101127.90;;;10.28;66.86
75172;BME280;63750;52.418;20.742;2022-10-31T05:15:36;101130.19;;;10.31;66.89
75172;BME280;63750;52.418;20.742;2022-10-31T05:18:04;101135.13;;;10.31;66.65
75172;BME280;63750;52.418;20.742;2022-10-31T05:20:33;101137.55;;;10.29;66.62
75172;BME280;63750;52.418;20.742;2022-10-31T05:23:02;101142.50;;;10.32;66.91
75172;BME280;63750;52.418;20.742;2022-10-31T05:25:31;101143.20;;;10.34;66.97
75172;BME280;63750;52.418;20.742;2022-10-31T05:28:01;101143.20;;;10.34;66.69
75172;BME280;63750;52.418;20.742;2022-10-31T05:30:31;101146.31;;;10.33;66.45
75172;BME280;63750;52.418;20.742;2022-10-31T05:33:00;101144.21;;;10.30;66.22
75172;BME280;63750;52.418;20.742;2022-10-31T05:35:31;101142.17;;;10.26;66.31
75172;BME280;63750;52.418;20.742;2022-10-31T05:38:00;101143.70;;;10.23;66.30
75172;BME280;63750;52.418;20.742;2022-10-31T05:40:29;101141.42;;;10.20;66.33
75172;BME280;63750;52.418;20.742;2022-10-31T05:42:58;101146.34;;;10.18;66.02
75172;BME280;63750;52.418;20.742;2022-10-31T05:45:26;101145.30;;;10.15;66.37
75172;BME280;63750;52.418;20.742;2022-10-31T05:47:56;101144.13;;;10.14;66.32
75172;BME280;63750;52.418;20.742;2022-10-31T05:50:26;101140.24;;;10.14;66.34
75172;BME280;63750;52.418;20.742;2022-10-31T05:52:59;101139.08;;;10.13;66.58
75172;BME280;63750;52.418;20.742;2022-10-31T05:55:28;101135.73;;;10.13;66.76
75172;BME280;63750;52.418;20.742;2022-10-31T05:57:58;101135.50;;;10.13;66.66
75172;BME280;63750;52.418;20.742;2022-10-31T06:00:27;101140.15;;;10.15;66.82
75172;BME280;63750;52.418;20.742;2022-10-31T06:03:01;101145.14;;;10.17;66.75
75172;BME280;63750;52.418;20.742;2022-10-31T06:05:31;101148.61;;;10.18;67.24
75172;BME280;63750;52.418;20.742;2022-10-31T06:07:59;101149.25;;;10.19;67.12
75172;BME280;63750;52.418;20.742;2022-10-31T06:10:28;101152.13;;;10.23;67.03
75172;BME280;63750;52.418;20.742;2022-10-31T06:12:57;101156.93;;;10.28;67.05
75172;BME280;63750;52.418;20.742;2022-10-31T06:15:25;101160.61;;;10.31;67.02
75172;BME280;63750;52.418;20.742;2022-10-31T06:18:02;101160.09;;;10.33;67.41
75172;BME280;63750;52.418;20.742;2022-10-31T06:20:31;101167.34;;;10.36;67.39
75172;BME280;63750;52.418;20.742;2022-10-31T06:22:59;101162.40;;;10.42;67.60
75172;BME280;63750;52.418;20.742;2022-10-31T06:25:28;101163.62;;;10.56;68.35
75172;BME280;63750;52.418;20.742;2022-10-31T06:27:56;101165.16;;;10.73;67.96
75172;BME280;63750;52.418;20.742;2022-10-31T06:30:25;101163.67;;;10.87;67.44
75172;BME280;63750;52.418;20.742;2022-10-31T06:33:41;101164.98;;;10.96;67.05
75172;BME280;63750;52.418;20.742;2022-10-31T06:36:12;101165.23;;;10.99;66.95
75172;BME280;63750;52.418;20.742;2022-10-31T06:38:44;101161.85;;;11.06;67.22
75172;BME280;63750;52.418;20.742;2022-10-31T06:41:26;101166.55;;;11.18;66.91
75172;BME280;63750;52.418;20.742;2022-10-31T06:43:54;101165.58;;;11.33;67.22
75172;BME280;63750;52.418;20.742;2022-10-31T06:46:41;101169.06;;;11.49;67.26
75172;BME280;63750;52.418;20.742;2022-10-31T06:49:09;101168.69;;;11.64;67.02
75172;BME280;63750;52.418;20.742;2022-10-31T06:51:38;101169.73;;;11.78;66.58
75172;BME280;63750;52.418;20.742;2022-10-31T06:54:06;101169.94;;;11.88;66.32
75172;BME280;63750;52.418;20.742;2022-10-31T06:56:35;101169.45;;;11.99;66.26
75172;BME280;63750;52.418;20.742;2022-10-31T06:59:04;101166.75;;;12.08;66.34
75172;BME280;63750;52.418;20.742;2022-10-31T07:01:35;101165.51;;;12.16;66.42
75172;BME280;63750;52.418;20.742;2022-10-31T07:04:05;101169.27;;;12.24;66.35
75172;BME280;63750;52.418;20.742;2022-10-31T07:06:33;101174.58;;;12.32;66.42
75172;BME280;63750;52.418;20.742;2022-10-31T07:09:01;101173.28;;;12.42;66.49
75172;BME280;63750;52.418;20.742;2022-10-31T07:11:29;101176.44;;;12.53;66.64
75172;BME280;63750;52.418;20.742;2022-10-31T07:13:59;101175.44;;;12.66;66.69
75172;BME280;63750;52.418;20.742;2022-10-31T07:16:27;101177.45;;;12.78;66.41
75172;BME280;63750;52.418;20.742;2022-10-31T07:18:55;101181.08;;;12.88;66.33
75172;BME280;63750;52.418;20.742;2022-10-31T07:21:24;101178.79;;;12.93;66.19
75172;BME280;63750;52.418;20.742;2022-10-31T07:23:52;101177.49;;;12.98;66.22
75172;BME280;63750;52.418;20.742;2022-10-31T07:26:21;101174.64;;;13.02;66.27
75172;BME280;63750;52.418;20.742;2022-10-31T07:28:49;101174.56;;;13.07;66.32
75172;BME280;63750;52.418;20.742;2022-10-31T07:31:18;101173.34;;;13.13;66.58
75172;BME280;63750;52.418;20.742;2022-10-31T07:33:46;101172.66;;;13.21;66.73
75172;BME280;63750;52.418;20.742;2022-10-31T07:36:15;101174.32;;;13.29;66.89
75172;BME280;63750;52.418;20.742;2022-10-31T07:38:44;101181.48;;;13.36;66.95
75172;BME280;63750;52.418;20.742;2022-10-31T07:41:12;101181.92;;;13.45;67.13
75172;BME280;63750;52.418;20.742;2022-10-31T07:43:40;101185.39;;;13.56;66.97
75172;BME280;63750;52.418;20.742;2022-10-31T07:46:08;101180.84;;;13.67;67.24
75172;BME280;63750;52.418;20.742;2022-10-31T07:48:37;101186.67;;;13.80;67.38
75172;BME280;63750;52.418;20.742;2022-10-31T07:51:05;101192.70;;;13.92;66.98
75172;BME280;63750;52.418;20.742;2022-10-31T07:53:33;101192.55;;;14.01;66.92
75172;BME280;63750;52.418;20.742;2022-10-31T07:56:03;101194.05;;;14.08;66.75
75172;BME280;63750;52.418;20.742;2022-10-31T07:58:31;101196.83;;;14.17;66.79
75172;BME280;63750;52.418;20.742;2022-10-31T08:00:59;101195.20;;;14.26;66.75
75172;BME280;63750;52.418;20.742;2022-10-31T08:03:27;101193.54;;;14.40;67.06
75172;BME280;63750;52.418;20.742;2022-10-31T08:05:57;101192.02;;;14.54;67.03
75172;BME280;63750;52.418;20.742;2022-10-31T08:08:25;101194.87;;;14.67;67.03
75172;BME280;63750;52.418;20.742;2022-10-31T08:10:54;101198.05;;;14.80;66.73
75172;BME280;63750;52.418;20.742;2022-10-31T08:13:23;101196.88;;;14.93;66.44
75172;BME280;63750;52.418;20.742;2022-10-31T08:15:51;101196.19;;;15.03;66.28
75172;BME280;63750;52.418;20.742;2022-10-31T08:18:19;101197.20;;;15.11;66.01
75172;BME280;63750;52.418;20.742;2022-10-31T08:20:47;101200.78;;;15.21;65.93
75172;BME280;63750;52.418;20.742;2022-10-31T08:23:19;101203.08;;;15.32;65.98
75172;BME280;63750;52.418;20.742;2022-10-31T08:25:47;101203.83;;;15.41;65.95
75172;BME280;63750;52.418;20.742;2022-10-31T08:28:16;101207.11;;;15.55;65.76
75172;BME280;63750;52.418;20.742;2022-10-31T08:30:44;101207.56;;;15.67;65.57
75172;BME280;63750;52.418;20.742;2022-10-31T08:33:14;101205.97;;;15.79;65.31
75172;BME280;63750;52.418;20.742;2022-10-31T08:35:42;101209.97;;;15.93;65.29
75172;BME280;63750;52.418;20.742;2022-10-31T08:38:11;101212.44;;;16.08;65.10
75172;BME280;63750;52.418;20.742;2022-10-31T08:40:40;101216.70;;;16.21;64.71
75172;BME280;63750;52.418;20.742;2022-10-31T08:43:12;101219.11;;;16.29;64.64
75172;BME280;63750;52.418;20.742;2022-10-31T08:45:42;101216.92;;;16.42;64.55
75172;BME280;63750;52.418;20.742;2022-10-31T08:48:12;101212.31;;;16.53;64.14
75172;BME280;63750;52.418;20.742;2022-10-31T08:50:42;101211.70;;;16.62;63.55
75172;BME280;63750;52.418;20.742;2022-10-31T08:53:12;101215.54;;;16.70;63.17
75172;BME280;63750;52.418;20.742;2022-10-31T08:55:44;101213.39;;;16.78;63.03
75172;BME280;63750;52.418;20.742;2022-10-31T08:58:14;101213.89;;;16.93;63.21
75172;BME280;63750;52.418;20.742;2022-10-31T09:00:43;101216.77;;;17.08;62.78
75172;BME280;63750;52.418;20.742;2022-10-31T09:03:14;101211.21;;;17.27;62.32
75172;BME280;63750;52.418;20.742;2022-10-31T09:05:43;101214.23;;;17.44;61.87
75172;BME280;63750;52.418;20.742;2022-10-31T09:08:11;101215.17;;;17.52;61.29
75172;BME280;63750;52.418;20.742;2022-10-31T09:10:40;101211.70;;;17.58;60.87
75172;BME280;63750;52.418;20.742;2022-10-31T09:13:11;101206.23;;;17.66;60.50
75172;BME280;63750;52.418;20.742;2022-10-31T09:15:41;101207.83;;;17.74;60.28
75172;BME280;63750;52.418;20.742;2022-10-31T09:18:11;101209.19;;;17.80;60.16
75172;BME280;63750;52.418;20.742;2022-10-31T09:20:40;101213.08;;;17.89;59.89
75172;BME280;63750;52.418;20.742;2022-10-31T09:23:12;101215.79;;;17.95;59.68
75172;BME280;63750;52.418;20.742;2022-10-31T09:25:43;101210.48;;;18.02;59.44
75172;BME280;63750;52.418;20.742;2022-10-31T09:28:13;101214.49;;;18.07;59.34
75172;BME280;63750;52.418;20.742;2022-10-31T09:30:42;101219.86;;;18.16;58.96
75172;BME280;63750;52.418;20.742;2022-10-31T09:33:12;101218.66;;;18.25;58.62
75172;BME280;63750;52.418;20.742;2022-10-31T09:35:42;101219.63;;;18.36;58.48
75172;BME280;63750;52.418;20.742;2022-10-31T09:38:12;101218.11;;;18.41;58.14
75172;BME280;63750;52.418;20.742;2022-10-31T09:40:43;101214.71;;;18.53;58.14
75172;BME280;63750;52.418;20.742;2022-10-31T09:43:20;101211.68;;;18.67;58.07
75172;BME280;63750;52.418;20.742;2022-10-31T09:45:59;101214.39;;;18.83;57.97
75172;BME280;63750;52.418;20.742;2022-10-31T09:48:36;101214.04;;;18.99;57.88
75172;BME280;63750;52.418;20.742;2022-10-31T09:51:08;101215.11;;;19.17;57.56
75172;BME280;63750;52.418;20.742;2022-10-31T09:53:42;101210.52;;;19.33;57.02
75172;BME280;63750;52.418;20.742;2022-10-31T09:56:14;101208.41;;;19.46;56.63
75172;BME280;63750;52.418;20.742;2022-10-31T09:58:45;101207.45;;;19.59;56.15
75172;BME280;63750;52.418;20.742;2022-10-31T10:01:28;101205.45;;;19.75;56.10
75172;BME280;63750;52.418;20.742;2022-10-31T10:04:01;101207.05;;;19.89;55.89
75172;BME280;63750;52.418;20.742;2022-10-31T10:06:34;101207.07;;;19.92;55.23
75172;BME280;63750;52.418;20.742;2022-10-31T10:09:04;101205.48;;;19.99;55.12
75172;BME280;63750;52.418;20.742;2022-10-31T10:11:54;101206.27;;;20.13;55.00
75172;BME280;63750;52.418;20.742;2022-10-31T10:14:36;101206.27;;;20.28;54.82
75172;BME280;63750;52.418;20.742;2022-10-31T10:17:17;101205.55;;;20.37;54.43
75172;BME280;63750;52.418;20.742;2022-10-31T10:20:02;101201.69;;;20.53;54.23
75172;BME280;63750;52.418;20.742;2022-10-31T10:22:40;101196.48;;;20.65;53.89
75172;BME280;63750;52.418;20.742;2022-10-31T10:25:19;101198.09;;;20.82;53.64
75172;BME280;63750;52.418;20.742;2022-10-31T10:28:06;101203.32;;;20.98;53.33
75172;BME280;63750;52.418;20.742;2022-10-31T10:30:41;101203.39;;;21.08;53.19
75172;BME280;63750;52.418;20.742;2022-10-31T10:33:13;101200.88;;;21.21;52.71
75172;BME280;63750;52.418;20.742;2022-10-31T10:35:45;101195.36;;;21.34;52.05
75172;BME280;63750;52.418;20.742;2022-10-31T10:38:20;101193.90;;;21.46;51.91
75172;BME280;63750;52.418;20.742;2022-10-31T10:40:51;101197.35;;;21.59;51.73
75172;BME280;63750;52.418;20.742;2022-10-31T10:43:24;101197.59;;;21.74;51.40
75172;BME280;63750;52.418;20.742;2022-10-31T10:46:12;101202.96;;;21.89;51.30
75172;BME280;63750;52.418;20.742;2022-10-31T10:48:52;101202.50;;;21.98;50.93
75172;BME280;63750;52.418;20.742;2022-10-31T10:51:29;101200.11;;;22.06;50.38
75172;BME280;63750;52.418;20.742;2022-10-31T10:54:15;101193.55;;;22.21;50.35
75172;BME280;63750;52.418;20.742;2022-10-31T10:56:56;101191.21;;;22.41;50.17
75172;BME280;63750;52.418;20.742;2022-10-31T10:59:28;101191.17;;;22.51;49.50
75172;BME280;63750;52.418;20.742;2022-10-31T11:01:56;101182.79;;;22.64;49.08
75172;BME280;63750;52.418;20.742;2022-10-31T11:04:32;101185.09;;;22.73;48.67
75172;BME280;63750;52.418;20.742;2022-10-31T11:07:03;101185.08;;;22.87;48.57
75172;BME280;63750;52.418;20.742;2022-10-31T11:09:32;101185.32;;;22.98;48.03
75172;BME280;63750;52.418;20.742;2022-10-31T11:12:07;101179.77;;;23.11;48.05
75172;BME280;63750;52.418;20.742;2022-10-31T11:14:45;101180.60;;;23.24;47.67
75172;BME280;63750;52.418;20.742;2022-10-31T11:17:22;101182.59;;;23.38;47.76
75172;BME280;63750;52.418;20.742;2022-10-31T11:20:03;101185.11;;;23.53;47.22
75172;BME280;63750;52.418;20.742;2022-10-31T11:22:32;101185.18;;;23.68;46.95
75172;BME280;63750;52.418;20.742;2022-10-31T11:25:11;101186.54;;;23.84;46.44
75172;BME280;63750;52.418;20.742;2022-10-31T11:27:48;101185.74;;;24.01;46.26
75172;BME280;63750;52.418;20.742;2022-10-31T11:30:26;101180.76;;;24.13;46.10
75172;BME280;63750;52.418;20.742;2022-10-31T11:32:56;101179.05;;;24.21;45.59
75172;BME280;63750;52.418;20.742;2022-10-31T11:35:25;101174.54;;;24.27;45.54
75172;BME280;63750;52.418;20.742;2022-10-31T11:37:56;101178.70;;;24.42;45.32
75172;BME280;63750;52.418;20.742;2022-10-31T11:40:28;101178.65;;;24.50;45.17
75172;BME280;63750;52.418;20.742;2022-10-31T11:42:57;101174.10;;;24.59;44.74
75172;BME280;63750;52.418;20.742;2022-10-31T11:45:31;101172.09;;;24.72;44.62
75172;BME280;63750;52.418;20.742;2022-10-31T11:48:01;101172.54;;;24.89;44.53
75172;BME280;63750;52.418;20.742;2022-10-31T11:50:35;101169.23;;;25.06;44.15
75172;BME280;63750;52.418;20.742;2022-10-31T11:53:09;101166.27;;;25.17;43.73
75172;BME280;63750;52.418;20.742;2022-10-31T11:55:41;101169.83;;;25.21;43.20
75172;BME280;63750;52.418;20.742;2022-10-31T11:58:22;101171.09;;;25.24;42.96
75172;BME280;63750;52.418;20.742;2022-10-31T12:00:52;101169.00;;;25.23;42.75
75172;BME280;63750;52.418;20.742;2022-10-31T12:03:33;101166.83;;;25.23;42.57
75172;BME280;63750;52.418;20.742;2022-10-31T12:06:09;101167.27;;;25.33;42.70
75172;BME280;63750;52.418;20.742;2022-10-31T12:08:41;101170.11;;;25.48;42.49
75172;BME280;63750;52.418;20.742;2022-10-31T12:11:17;101171.87;;;25.61;42.49
75172;BME280;63750;52.418;20.742;2022-10-31T12:14:02;101165.77;;;25.67;42.19
75172;BME280;63750;52.418;20.742;2022-10-31T12:16:39;101164.34;;;25.68;41.95
75172;BME280;63750;52.418;20.742;2022-10-31T12:19:16;101159.88;;;25.74;41.77
75172;BME280;63750;52.418;20.742;2022-10-31T12:21:59;101159.34;;;25.82;41.51
75172;BME280;63750;52.418;20.742;2022-10-31T12:24:45;101161.52;;;25.84;41.23
75172;BME280;63750;52.418;20.742;2022-10-31T12:27:25;101161.55;;;25.90;40.96
75172;BME280;63750;52.418;20.742;2022-10-31T12:30:17;101156.70;;;26.01;41.03
75172;BME280;63750;52.418;20.742;2022-10-31T12:33:07;101156.42;;;26.08;40.80
75172;BME280;63750;52.418;20.742;2022-10-31T12:35:46;101158.50;;;26.01;40.47
75172;BME280;63750;52.418;20.742;2022-10-31T12:38:33;101156.27;;;26.04;40.45
75172;BME280;63750;52.418;20.742;2022-10-31T12:41:17;101156.88;;;26.06;40.44
75172;BME280;63750;52.418;20.742;2022-10-31T12:44:00;101158.80;;;26.09;40.30
75172;BME280;63750;52.418;20.742;2022-10-31T12:46:43;101152.19;;;26.12;40.22
75172;BME280;63750;52.418;20.742;2022-10-31T12:49:27;101152.70;;;26.18;40.30
75172;BME280;63750;52.418;20.742;2022-10-31T12:52:09;101150.13;;;26.19;40.16
75172;BME280;63750;52.418;20.742;2022-10-31T12:54:56;101152.27;;;26.19;40.01
75172;BME280;63750;52.418;20.742;2022-10-31T12:57:32;101153.19;;;26.19;40.01
75172;BME280;63750;52.418;20.742;2022-10-31T13:00:04;101154.90;;;26.20;39.85
75172;BME280;63750;52.418;20.742;2022-10-31T13:02:37;101152.27;;;26.17;39.71
75172;BME280;63750;52.418;20.742;2022-10-31T13:05:16;101152.06;;;26.08;39.67
75172;BME280;63750;52.418;20.742;2022-10-31T13:07:48;101160.20;;;26.04;39.78